createdAt,value
2023-05-04T00:00:10.181Z,11.60
2023-05-04T00:01:10.162Z,10.10
2023-05-04T00:02:10.152Z,10.20
2023-05-04T00:03:10.215Z,9.20
2023-05-04T00:04:10.269Z,9.00
2023-05-04T00:05:10.103Z,11.20
2023-05-04T00:06:10.187Z,9.40
2023-05-04T00:07:10.088Z,9.10
2023-05-04T00:08:10.137Z,9.60
2023-05-04T00:09:11.108Z,7.90
2023-05-04T00:10:10.078Z,10.20
2023-05-04T00:11:10.080Z,9.10
2023-05-04T00:12:10.050Z,9.10
2023-05-04T00:13:10.210Z,10.10
2023-05-04T00:14:10.040Z,11.50
2023-05-04T00:15:10.036Z,10.10
2023-05-04T00:16:11.068Z,9.20
2023-05-04T00:17:11.006Z,10.50
2023-05-04T00:18:10.000Z,11.00
2023-05-04T00:19:10.257Z,11.60
2023-05-04T00:20:10.018Z,12.20
2023-05-04T00:21:10.004Z,14.40
2023-05-04T00:22:09.993Z,13.60
2023-05-04T00:23:09.970Z,12.20
2023-05-04T00:24:09.960Z,11.90
2023-05-04T00:25:09.978Z,11.00
2023-05-04T00:26:10.017Z,12.10
2023-05-04T00:27:09.948Z,10.00
2023-05-04T00:28:09.931Z,10.50
2023-05-04T00:29:10.005Z,8.40
2023-05-04T00:30:09.935Z,9.60
2023-05-04T00:31:09.946Z,10.40
2023-05-04T00:32:09.905Z,9.30
2023-05-04T00:33:09.930Z,9.50
2023-05-04T00:34:09.894Z,11.00
2023-05-04T00:35:09.879Z,10.90
2023-05-04T00:36:09.894Z,10.30
2023-05-04T00:37:09.870Z,9.40
2023-05-04T00:38:09.859Z,9.50
2023-05-04T00:39:09.852Z,11.00
2023-05-04T00:40:09.869Z,10.40
2023-05-04T00:41:09.861Z,9.50
2023-05-04T00:42:09.826Z,10.80
2023-05-04T00:43:09.816Z,10.40
2023-05-04T00:44:09.815Z,10.00
2023-05-04T00:45:09.877Z,8.70
2023-05-04T00:46:09.877Z,10.90
2023-05-04T00:47:09.800Z,10.40
2023-05-04T00:48:09.834Z,10.00
2023-05-04T00:49:09.777Z,9.50
2023-05-04T00:50:09.785Z,10.20
2023-05-04T00:51:09.792Z,10.70
2023-05-04T00:52:09.751Z,11.70
2023-05-04T00:53:09.762Z,11.00
2023-05-04T00:54:09.742Z,9.40
2023-05-04T00:55:09.737Z,9.30
2023-05-04T00:56:09.746Z,9.50
2023-05-04T00:57:09.730Z,8.90
2023-05-04T00:58:09.711Z,9.20
2023-05-04T00:59:09.698Z,9.60
2023-05-04T01:00:09.701Z,9.80
2023-05-04T01:01:09.753Z,9.20
2023-05-04T01:02:09.692Z,11.90
2023-05-04T01:03:09.793Z,9.70
2023-05-04T01:04:09.819Z,10.60
2023-05-04T01:05:09.656Z,10.50
2023-05-04T01:06:09.675Z,11.00
2023-05-04T01:07:10.160Z,11.60
2023-05-04T01:08:09.647Z,11.30
2023-05-04T01:09:09.629Z,8.90
2023-05-04T01:10:09.615Z,10.90
2023-05-04T01:11:09.643Z,9.20
2023-05-04T01:12:09.615Z,10.30
2023-05-04T01:13:09.688Z,10.80
2023-05-04T01:14:09.588Z,11.70
2023-05-04T01:15:09.588Z,9.80
2023-05-04T01:16:09.626Z,11.30
2023-05-04T01:17:09.726Z,11.80
2023-05-04T01:18:09.647Z,9.90
2023-05-04T01:19:09.553Z,10.60
2023-05-04T01:20:09.563Z,11.00
2023-05-04T01:21:09.567Z,11.90
2023-05-04T01:22:09.518Z,9.80
2023-05-04T01:23:10.521Z,10.80
2023-05-04T01:24:09.522Z,9.90
2023-05-04T01:25:09.508Z,11.30
2023-05-04T01:26:09.518Z,10.40
2023-05-04T01:27:09.496Z,13.10
2023-05-04T01:28:09.533Z,11.30
2023-05-04T01:29:09.480Z,11.50
2023-05-04T01:30:09.471Z,12.90
2023-05-04T01:31:09.519Z,12.10
2023-05-04T01:32:09.454Z,11.30
2023-05-04T01:33:09.491Z,12.10
2023-05-04T01:34:09.438Z,10.80
2023-05-04T01:35:09.468Z,10.40
2023-05-04T01:36:09.468Z,11.00
2023-05-04T01:37:09.433Z,12.90
2023-05-04T01:38:09.417Z,12.50
2023-05-04T01:39:09.411Z,11.60
2023-05-04T01:40:09.432Z,12.70
2023-05-04T01:41:09.383Z,10.70
2023-05-04T01:42:09.385Z,10.60
2023-05-04T01:43:09.371Z,12.50
2023-05-04T01:44:09.383Z,11.40
2023-05-04T01:45:10.417Z,11.50
2023-05-04T01:46:09.418Z,11.10
2023-05-04T01:47:09.338Z,11.20
2023-05-04T01:48:09.370Z,12.10
2023-05-04T01:49:09.384Z,11.90
2023-05-04T01:50:09.318Z,10.70
2023-05-04T01:51:09.327Z,11.40
2023-05-04T01:52:09.307Z,12.70
2023-05-04T01:53:09.284Z,12.60
2023-05-04T01:54:09.295Z,11.30
2023-05-04T01:55:09.264Z,12.40
2023-05-04T01:56:10.300Z,12.20
2023-05-04T01:57:09.250Z,10.20
2023-05-04T01:58:09.276Z,13.20
2023-05-04T01:59:09.260Z,11.40
2023-05-04T02:00:09.274Z,13.40
2023-05-04T02:01:09.326Z,13.10
2023-05-04T02:02:09.234Z,14.00
2023-05-04T02:03:09.320Z,12.40
2023-05-04T02:04:09.262Z,13.00
2023-05-04T02:05:09.219Z,11.90
2023-05-04T02:06:09.205Z,13.80
2023-05-04T02:07:09.185Z,12.40
2023-05-04T02:08:09.168Z,12.90
2023-05-04T02:09:09.168Z,11.60
2023-05-04T02:10:09.177Z,14.10
2023-05-04T02:11:09.174Z,11.80
2023-05-04T02:12:09.144Z,11.00
2023-05-04T02:13:09.187Z,11.40
2023-05-04T02:14:09.122Z,12.60
2023-05-04T02:15:09.163Z,11.70
2023-05-04T02:16:09.161Z,11.70
2023-05-04T02:17:09.108Z,12.70
2023-05-04T02:18:09.157Z,11.90
2023-05-04T02:19:09.087Z,14.20
2023-05-04T02:20:09.107Z,14.70
2023-05-04T02:21:09.087Z,14.50
2023-05-04T02:22:09.095Z,12.00
2023-05-04T02:23:09.065Z,12.30
2023-05-04T02:24:09.068Z,12.10
2023-05-04T02:25:09.072Z,10.80
2023-05-04T02:26:09.038Z,10.50
2023-05-04T02:27:09.100Z,13.60
2023-05-04T02:28:09.029Z,14.00
2023-05-04T02:29:09.025Z,11.80
2023-05-04T02:30:09.061Z,12.20
2023-05-04T02:31:09.036Z,13.00
2023-05-04T02:32:09.000Z,10.50
2023-05-04T02:33:08.995Z,13.30
2023-05-04T02:34:08.986Z,13.90
2023-05-04T02:35:09.001Z,10.80
2023-05-04T02:36:08.988Z,12.00
2023-05-04T02:37:08.955Z,12.80
2023-05-04T02:38:08.952Z,12.40
2023-05-04T02:39:08.941Z,11.90
2023-05-04T02:40:08.957Z,12.50
2023-05-04T02:41:08.942Z,12.60
2023-05-04T02:42:08.926Z,12.00
2023-05-04T02:43:08.905Z,12.70
2023-05-04T02:44:08.907Z,12.80
2023-05-04T02:45:08.924Z,12.10
2023-05-04T02:46:08.914Z,12.20
2023-05-04T02:47:08.876Z,12.90
2023-05-04T02:48:08.991Z,13.10
2023-05-04T02:49:08.865Z,14.60
2023-05-04T02:50:08.992Z,13.30
2023-05-04T02:51:08.856Z,10.60
2023-05-04T02:52:08.856Z,13.60
2023-05-04T02:53:08.826Z,16.00
2023-05-04T02:54:08.828Z,14.40
2023-05-04T02:55:08.850Z,14.20
2023-05-04T02:56:08.825Z,13.50
2023-05-04T02:57:08.805Z,17.00
2023-05-04T02:58:08.802Z,15.90
2023-05-04T02:59:08.790Z,16.50
2023-05-04T03:00:08.813Z,14.20
2023-05-04T03:01:08.810Z,12.90
2023-05-04T03:02:08.783Z,14.80
2023-05-04T03:03:08.777Z,11.80
2023-05-04T03:04:08.781Z,12.70
2023-05-04T03:05:08.820Z,13.30
2023-05-04T03:06:08.750Z,11.90
2023-05-04T03:07:08.738Z,11.80
2023-05-04T03:08:08.732Z,14.00
2023-05-04T03:09:08.798Z,12.00
2023-05-04T03:10:08.965Z,15.20
2023-05-04T03:11:08.703Z,14.30
2023-05-04T03:12:08.749Z,14.80
2023-05-04T03:13:08.772Z,14.00
2023-05-04T03:14:08.690Z,14.10
2023-05-04T03:15:08.715Z,14.70
2023-05-04T03:16:08.705Z,14.60
2023-05-04T03:17:08.730Z,14.70
2023-05-04T03:18:08.679Z,12.10
2023-05-04T03:19:08.687Z,15.60
2023-05-04T03:20:08.771Z,12.70
2023-05-04T03:21:34.064Z,14.50
2023-05-04T03:22:08.618Z,12.20
2023-05-04T03:23:08.616Z,12.80
2023-05-04T03:24:08.722Z,14.80
2023-05-04T03:25:08.670Z,13.70
2023-05-04T03:26:08.587Z,12.50
2023-05-04T03:27:08.580Z,14.60
2023-05-04T03:28:08.587Z,13.80
2023-05-04T03:29:08.573Z,14.00
2023-05-04T03:30:08.595Z,13.60
2023-05-04T03:31:08.559Z,14.70
2023-05-04T03:32:08.615Z,13.80
2023-05-04T03:33:08.632Z,14.30
2023-05-04T03:34:08.536Z,13.40
2023-05-04T03:35:08.561Z,14.90
2023-05-04T03:36:08.519Z,13.90
2023-05-04T03:37:08.526Z,14.40
2023-05-04T03:38:08.506Z,13.50
2023-05-04T03:39:08.499Z,13.80
2023-05-04T03:40:08.524Z,12.90
2023-05-04T03:41:08.496Z,11.70
2023-05-04T03:42:08.477Z,12.10
2023-05-04T03:43:08.466Z,14.10
2023-05-04T03:44:08.466Z,13.80
2023-05-04T03:45:08.492Z,11.70
2023-05-04T03:46:08.513Z,15.00
2023-05-04T03:47:08.443Z,14.50
2023-05-04T03:48:08.468Z,15.20
2023-05-04T03:49:08.433Z,12.80
2023-05-04T03:50:08.450Z,13.40
2023-05-04T03:51:08.407Z,13.40
2023-05-04T03:52:08.408Z,14.10
2023-05-04T03:53:08.402Z,14.20
2023-05-04T03:54:08.380Z,12.20
2023-05-04T03:55:08.396Z,13.50
2023-05-04T03:56:08.421Z,14.70
2023-05-04T03:57:08.369Z,13.30
2023-05-04T03:58:08.361Z,15.60
2023-05-04T03:59:08.358Z,12.50
2023-05-04T04:00:08.360Z,13.60
2023-05-04T04:01:08.344Z,12.90
2023-05-04T04:02:08.386Z,13.00
2023-05-04T04:03:08.494Z,14.00
2023-05-04T04:04:08.409Z,13.90
2023-05-04T04:05:08.339Z,13.50
2023-05-04T04:06:08.303Z,14.00
2023-05-04T04:07:08.303Z,13.80
2023-05-04T04:08:08.282Z,13.80
2023-05-04T04:09:08.273Z,15.20
2023-05-04T04:10:08.295Z,15.30
2023-05-04T04:11:08.258Z,14.40
2023-05-04T04:12:08.262Z,13.30
2023-05-04T04:13:08.281Z,13.80
2023-05-04T04:14:08.240Z,14.30
2023-05-04T04:15:08.231Z,14.10
2023-05-04T04:16:08.273Z,13.20
2023-05-04T04:17:08.256Z,12.80
2023-05-04T04:18:08.359Z,14.40
2023-05-04T04:19:08.209Z,13.20
2023-05-04T04:20:08.340Z,12.30
2023-05-04T04:21:08.222Z,15.00
2023-05-04T04:22:08.173Z,14.00
2023-05-04T04:23:08.173Z,13.40
2023-05-04T04:24:08.176Z,12.70
2023-05-04T04:25:08.153Z,13.90
2023-05-04T04:26:08.193Z,12.40
2023-05-04T04:27:08.183Z,14.60
2023-05-04T04:28:08.130Z,13.70
2023-05-04T04:29:08.140Z,12.80
2023-05-04T04:30:08.166Z,14.00
2023-05-04T04:31:08.204Z,13.30
2023-05-04T04:32:08.106Z,13.10
2023-05-04T04:33:08.215Z,14.40
2023-05-04T04:34:08.078Z,14.40
2023-05-04T04:35:08.100Z,13.30
2023-05-04T04:36:08.076Z,16.50
2023-05-04T04:37:08.059Z,13.10
2023-05-04T04:38:08.052Z,12.00
2023-05-04T04:39:08.057Z,13.50
2023-05-04T04:40:08.068Z,13.10
2023-05-04T04:41:08.032Z,13.10
2023-05-04T04:42:08.026Z,13.60
2023-05-04T04:43:08.015Z,12.80
2023-05-04T04:44:08.007Z,13.30
2023-05-04T04:45:08.028Z,11.60
2023-05-04T04:46:08.012Z,14.40
2023-05-04T04:47:07.988Z,15.10
2023-05-04T04:48:08.035Z,12.90
2023-05-04T04:49:07.970Z,14.50
2023-05-04T04:50:08.195Z,12.30
2023-05-04T04:51:07.960Z,11.30
2023-05-04T04:52:07.973Z,10.70
2023-05-04T04:53:08.005Z,14.90
2023-05-04T04:54:07.940Z,12.50
2023-05-04T04:55:07.982Z,12.90
2023-05-04T04:56:07.954Z,12.10
2023-05-04T04:57:07.918Z,13.10
2023-05-04T04:58:07.936Z,11.30
2023-05-04T04:59:07.934Z,11.80
2023-05-04T05:00:07.967Z,10.30
2023-05-04T05:01:07.962Z,11.70
2023-05-04T05:02:07.875Z,13.20
2023-05-04T05:03:07.948Z,11.80
2023-05-04T05:04:07.874Z,11.00
2023-05-04T05:05:08.041Z,11.80
2023-05-04T05:06:07.849Z,12.20
2023-05-04T05:07:07.847Z,11.40
2023-05-04T05:08:07.845Z,11.60
2023-05-04T05:09:07.825Z,13.60
2023-05-04T05:10:07.999Z,11.60
2023-05-04T05:11:07.859Z,11.50
2023-05-04T05:12:07.800Z,11.30
2023-05-04T05:13:07.857Z,12.00
2023-05-04T05:14:07.795Z,11.10
2023-05-04T05:15:07.801Z,11.10
2023-05-04T05:16:07.799Z,11.20
2023-05-04T05:17:07.816Z,11.70
2023-05-04T05:18:08.819Z,10.60
2023-05-04T05:19:07.756Z,13.80
2023-05-04T05:20:07.847Z,13.80
2023-05-04T05:21:07.781Z,17.80
2023-05-04T05:22:07.731Z,28.20
2023-05-04T05:23:07.727Z,22.10
2023-05-04T05:24:07.725Z,20.60
2023-05-04T05:25:07.734Z,16.00
2023-05-04T05:26:07.726Z,14.20
2023-05-04T05:27:07.689Z,17.50
2023-05-04T05:28:07.685Z,14.70
2023-05-04T05:29:07.675Z,13.30
2023-05-04T05:30:07.925Z,14.00
2023-05-04T05:31:07.831Z,15.20
2023-05-04T05:32:07.669Z,14.90
2023-05-04T05:33:07.690Z,13.80
2023-05-04T05:34:07.628Z,13.60
2023-05-04T05:35:07.673Z,13.40
2023-05-04T05:36:07.695Z,12.10
2023-05-04T05:37:40.097Z,14.20
2023-05-04T05:38:07.623Z,14.40
2023-05-04T05:39:07.600Z,13.20
2023-05-04T05:40:07.805Z,15.60
2023-05-04T05:41:07.612Z,14.70
2023-05-04T05:42:07.577Z,13.10
2023-05-04T05:43:07.569Z,12.50
2023-05-04T05:44:07.600Z,14.70
2023-05-04T05:45:07.549Z,14.80
2023-05-04T05:46:07.595Z,12.40
2023-05-04T05:47:07.548Z,13.50
2023-05-04T05:48:07.718Z,15.00
2023-05-04T05:49:07.560Z,14.30
2023-05-04T05:50:07.785Z,14.10
2023-05-04T05:51:07.540Z,12.80
2023-05-04T05:52:07.505Z,13.70
2023-05-04T05:53:07.502Z,13.70
2023-05-04T05:54:07.494Z,14.00
2023-05-04T05:55:07.492Z,13.10
2023-05-04T05:56:07.504Z,12.30
2023-05-04T05:57:07.491Z,15.40
2023-05-04T05:58:07.474Z,13.50
2023-05-04T05:59:07.461Z,14.50
2023-05-04T06:00:07.569Z,14.10
2023-05-04T06:01:07.472Z,15.10
2023-05-04T06:02:07.445Z,15.40
2023-05-04T06:03:07.503Z,15.00
2023-05-04T06:04:07.599Z,14.70
2023-05-04T06:05:07.423Z,15.50
2023-05-04T06:06:07.425Z,14.10
2023-05-04T06:07:07.402Z,14.70
2023-05-04T06:08:07.384Z,17.10
2023-05-04T06:09:07.376Z,14.70
2023-05-04T06:10:07.531Z,16.70
2023-05-04T06:11:07.415Z,16.50
2023-05-04T06:12:07.358Z,17.50
2023-05-04T06:13:08.270Z,16.10
2023-05-04T06:14:07.345Z,17.20
2023-05-04T06:15:07.333Z,13.90
2023-05-04T06:16:07.409Z,16.60
2023-05-04T06:17:07.321Z,15.30
2023-05-04T06:18:07.351Z,17.60
2023-05-04T06:19:07.320Z,16.80
2023-05-04T06:20:07.418Z,16.10
2023-05-04T06:21:07.309Z,16.90
2023-05-04T06:22:07.285Z,15.30
2023-05-04T06:23:07.269Z,16.10
2023-05-04T06:24:07.276Z,14.10
2023-05-04T06:25:08.335Z,16.40
2023-05-04T06:26:08.265Z,17.30
2023-05-04T06:27:07.243Z,15.20
2023-05-04T06:28:07.230Z,17.60
2023-05-04T06:29:07.276Z,14.60
2023-05-04T06:30:07.569Z,16.60
2023-05-04T06:31:07.269Z,20.60
2023-05-04T06:32:07.267Z,15.90
2023-05-04T06:33:07.278Z,17.90
2023-05-04T06:34:07.180Z,16.70
2023-05-04T06:35:07.176Z,14.60
2023-05-04T06:36:07.186Z,19.90
2023-05-04T06:37:07.265Z,16.80
2023-05-04T06:38:07.206Z,18.00
2023-05-04T06:39:07.140Z,16.90
2023-05-04T06:40:07.164Z,16.10
2023-05-04T06:41:07.216Z,22.50
2023-05-04T06:42:07.134Z,18.30
2023-05-04T06:43:07.119Z,17.00
2023-05-04T06:44:07.121Z,16.50
2023-05-04T06:45:07.105Z,17.10
2023-05-04T06:46:07.176Z,18.20
2023-05-04T06:47:07.113Z,18.10
2023-05-04T06:48:07.099Z,18.50
2023-05-04T06:49:07.075Z,17.80
2023-05-04T06:50:07.133Z,17.90
2023-05-04T06:51:07.095Z,19.70
2023-05-04T06:52:07.046Z,16.60
2023-05-04T06:53:07.040Z,17.50
2023-05-04T06:54:07.050Z,19.60
2023-05-04T06:55:07.027Z,18.10
2023-05-04T06:56:08.040Z,18.70
2023-05-04T06:57:07.029Z,17.30
2023-05-04T06:58:07.004Z,17.40
2023-05-04T06:59:07.006Z,18.50
2023-05-04T07:00:07.048Z,18.20
2023-05-04T07:01:07.076Z,14.00
2023-05-04T07:02:06.976Z,15.90
2023-05-04T07:03:07.038Z,16.50
2023-05-04T07:04:07.097Z,15.50
2023-05-04T07:05:06.950Z,19.20
2023-05-04T07:06:06.959Z,16.00
2023-05-04T07:07:06.943Z,18.80
2023-05-04T07:08:06.933Z,17.30
2023-05-04T07:09:06.918Z,17.80
2023-05-04T07:10:07.017Z,17.10
2023-05-04T07:11:06.922Z,16.00
2023-05-04T07:12:06.890Z,17.10
2023-05-04T07:13:07.074Z,18.80
2023-05-04T07:14:07.916Z,15.90
2023-05-04T07:15:06.952Z,17.80
2023-05-04T07:16:06.932Z,17.50
2023-05-04T07:17:06.847Z,17.30
2023-05-04T07:18:07.867Z,15.50
2023-05-04T07:19:06.837Z,14.90
2023-05-04T07:20:06.960Z,14.40
2023-05-04T07:21:25.894Z,14.80
2023-05-04T07:22:08.821Z,13.10
2023-05-04T07:23:06.801Z,14.40
2023-05-04T07:24:06.798Z,11.90
2023-05-04T07:25:06.800Z,13.90
2023-05-04T07:26:06.821Z,12.90
2023-05-04T07:27:06.783Z,14.20
2023-05-04T07:28:06.763Z,16.90
2023-05-04T07:29:06.752Z,16.70
2023-05-04T07:30:06.931Z,14.30
2023-05-04T07:31:06.763Z,13.40
2023-05-04T07:32:06.758Z,15.70
2023-05-04T07:33:06.795Z,12.50
2023-05-04T07:34:06.721Z,12.00
2023-05-04T07:35:06.732Z,14.50
2023-05-04T07:36:06.709Z,13.30
2023-05-04T07:37:06.698Z,13.50
2023-05-04T07:38:06.685Z,13.30
2023-05-04T07:39:06.677Z,12.20
2023-05-04T07:40:06.898Z,11.40
2023-05-04T07:41:06.668Z,10.90
2023-05-04T07:42:06.680Z,12.00
2023-05-04T07:43:06.648Z,13.40
2023-05-04T07:44:06.638Z,12.00
2023-05-04T07:45:06.662Z,14.40
2023-05-04T07:46:06.650Z,10.80
2023-05-04T07:47:06.623Z,10.80
2023-05-04T07:48:06.652Z,11.70
2023-05-04T07:49:06.594Z,11.80
2023-05-04T07:50:06.782Z,13.30
2023-05-04T07:51:06.611Z,11.50
2023-05-04T07:52:06.578Z,11.80
2023-05-04T07:53:06.574Z,10.20
2023-05-04T07:54:06.573Z,10.60
2023-05-04T07:55:06.576Z,10.30
2023-05-04T07:56:06.549Z,10.50
2023-05-04T07:57:06.547Z,9.60
2023-05-04T07:58:06.691Z,11.70
2023-05-04T07:59:06.559Z,11.70
2023-05-04T08:00:06.807Z,11.80
2023-05-04T08:01:06.521Z,11.70
2023-05-04T08:02:06.548Z,14.10
2023-05-04T08:03:06.553Z,10.70
2023-05-04T08:04:06.487Z,10.00
2023-05-04T08:05:06.507Z,10.80
2023-05-04T08:06:06.490Z,10.80
2023-05-04T08:07:06.678Z,11.90
2023-05-04T08:08:06.464Z,11.70
2023-05-04T08:09:06.463Z,11.20
2023-05-04T08:10:06.724Z,10.10
2023-05-04T08:11:19.397Z,10.90
2023-05-04T08:12:08.431Z,10.70
2023-05-04T08:13:06.510Z,11.00
2023-05-04T08:14:06.486Z,12.30
2023-05-04T08:15:06.568Z,9.10
2023-05-04T08:16:06.412Z,11.00
2023-05-04T08:17:06.406Z,12.40
2023-05-04T08:18:06.451Z,8.90
2023-05-04T08:19:06.380Z,11.50
2023-05-04T08:20:06.378Z,9.80
2023-05-04T08:21:06.387Z,10.40
2023-05-04T08:22:06.356Z,9.20
2023-05-04T08:23:06.450Z,12.60
2023-05-04T08:24:06.337Z,10.60
2023-05-04T08:25:06.571Z,11.40
2023-05-04T08:26:06.350Z,9.90
2023-05-04T08:27:08.371Z,13.20
2023-05-04T08:28:07.321Z,9.10
2023-05-04T08:29:06.306Z,11.40
2023-05-04T08:30:06.299Z,10.00
2023-05-04T08:31:06.316Z,12.30
2023-05-04T08:32:06.400Z,13.60
2023-05-04T08:33:06.316Z,9.00
2023-05-04T08:34:06.286Z,9.50
2023-05-04T08:35:06.454Z,11.50
2023-05-04T08:36:06.296Z,10.10
2023-05-04T08:37:06.281Z,8.40
2023-05-04T08:38:06.252Z,10.30
2023-05-04T08:39:06.239Z,9.30
2023-05-04T08:40:06.254Z,11.50
2023-05-04T08:41:06.214Z,11.40
2023-05-04T08:42:06.217Z,9.00
2023-05-04T08:43:06.202Z,10.80
2023-05-04T08:44:06.299Z,8.40
2023-05-04T08:45:06.455Z,9.60
2023-05-04T08:46:06.207Z,10.00
2023-05-04T08:47:06.198Z,9.90
2023-05-04T08:48:06.228Z,10.60
2023-05-04T08:49:06.184Z,11.40
2023-05-04T08:50:06.151Z,9.40
2023-05-04T08:51:06.142Z,9.10
2023-05-04T08:52:06.134Z,9.80
2023-05-04T08:53:06.124Z,8.90
2023-05-04T08:54:06.150Z,9.70
2023-05-04T08:55:06.373Z,10.60
2023-05-04T08:56:06.100Z,9.30
2023-05-04T08:57:06.102Z,10.80
2023-05-04T08:58:06.113Z,10.60
2023-05-04T08:59:06.101Z,8.90
2023-05-04T09:00:06.068Z,11.60
2023-05-04T09:01:06.179Z,10.60
2023-05-04T09:02:06.310Z,9.60
2023-05-04T09:03:06.134Z,9.70
2023-05-04T09:04:06.062Z,11.70
2023-05-04T09:05:06.214Z,9.80
2023-05-04T09:06:06.028Z,9.70
2023-05-04T09:07:06.020Z,7.90
2023-05-04T09:08:06.035Z,8.90
2023-05-04T09:09:06.008Z,9.60
2023-05-04T09:10:05.983Z,9.30
2023-05-04T09:11:06.002Z,10.20
2023-05-04T09:12:06.008Z,11.00
2023-05-04T09:13:06.116Z,9.90
2023-05-04T09:14:06.063Z,8.20
2023-05-04T09:15:06.479Z,9.90
2023-05-04T09:16:05.953Z,9.30
2023-05-04T09:17:06.039Z,9.80
2023-05-04T09:18:05.969Z,10.50
2023-05-04T09:19:05.926Z,10.60
2023-05-04T09:20:05.917Z,8.70
2023-05-04T09:21:05.910Z,8.90
2023-05-04T09:22:05.920Z,8.60
2023-05-04T09:23:05.889Z,9.00
2023-05-04T09:24:05.929Z,9.60
2023-05-04T09:25:06.082Z,9.60
2023-05-04T09:26:05.876Z,10.40
2023-05-04T09:27:05.901Z,7.20
2023-05-04T09:28:05.869Z,10.40
2023-05-04T09:29:05.848Z,8.40
2023-05-04T09:30:05.882Z,7.70
2023-05-04T09:31:05.882Z,10.00
2023-05-04T09:32:05.848Z,8.90
2023-05-04T09:33:05.883Z,9.20
2023-05-04T09:34:05.883Z,8.70
2023-05-04T09:35:06.067Z,8.70
2023-05-04T09:36:05.817Z,8.20
2023-05-04T09:37:05.787Z,9.50
2023-05-04T09:38:05.810Z,10.40
2023-05-04T09:39:05.779Z,10.40
2023-05-04T09:40:05.760Z,8.90
2023-05-04T09:41:05.790Z,8.00
2023-05-04T09:42:05.753Z,9.20
2023-05-04T09:43:06.822Z,8.30
2023-05-04T09:44:05.736Z,10.60
2023-05-04T09:45:05.877Z,9.70
2023-05-04T09:46:05.801Z,9.50
2023-05-04T09:47:05.746Z,10.70
2023-05-04T09:48:05.754Z,11.30
2023-05-04T09:49:05.684Z,9.20
2023-05-04T09:50:05.907Z,11.10
2023-05-04T09:51:05.822Z,8.60
2023-05-04T09:52:05.702Z,10.20
2023-05-04T09:53:05.683Z,9.30
2023-05-04T09:54:05.681Z,10.50
2023-05-04T09:55:05.968Z,10.50
2023-05-04T09:56:07.990Z,8.50
2023-05-04T09:57:05.652Z,9.00
2023-05-04T09:58:05.700Z,8.40
2023-05-04T09:59:05.625Z,11.00
2023-05-04T10:00:05.640Z,10.70
2023-05-04T10:01:05.632Z,8.90
2023-05-04T10:02:14.522Z,10.40
2023-05-04T10:03:07.611Z,8.90
2023-05-04T10:04:05.575Z,8.70
2023-05-04T10:05:05.734Z,9.10
2023-05-04T10:06:05.640Z,10.50
2023-05-04T10:07:05.555Z,8.40
2023-05-04T10:08:05.569Z,8.20
2023-05-04T10:09:05.559Z,10.00
2023-05-04T10:10:05.555Z,11.30
2023-05-04T10:11:05.530Z,9.40
2023-05-04T10:12:05.514Z,11.70
2023-05-04T10:13:05.544Z,9.80
2023-05-04T10:14:05.520Z,9.60
2023-05-04T10:15:05.581Z,9.80
2023-05-04T10:16:05.537Z,9.80
2023-05-04T10:17:05.472Z,9.10
2023-05-04T10:18:05.489Z,9.20
2023-05-04T10:19:05.480Z,12.60
2023-05-04T10:20:05.456Z,9.70
2023-05-04T10:21:05.452Z,10.40
2023-05-04T10:22:05.520Z,8.60
2023-05-04T10:23:05.450Z,10.60
2023-05-04T10:24:05.449Z,9.20
2023-05-04T10:25:05.771Z,11.60
2023-05-04T10:26:05.416Z,10.20
2023-05-04T10:27:05.392Z,9.40
2023-05-04T10:28:05.418Z,9.20
2023-05-04T10:29:06.390Z,8.90
2023-05-04T10:30:05.377Z,9.50
2023-05-04T10:31:05.365Z,9.60
2023-05-04T10:32:05.497Z,8.70
2023-05-04T10:33:05.439Z,10.50
2023-05-04T10:34:05.348Z,10.10
2023-05-04T10:35:05.642Z,8.40
2023-05-04T10:36:05.343Z,9.40
2023-05-04T10:37:05.330Z,8.30
2023-05-04T10:38:05.340Z,10.70
2023-05-04T10:39:05.383Z,7.60
2023-05-04T10:40:07.314Z,7.80
2023-05-04T10:41:05.305Z,10.50
2023-05-04T10:42:05.325Z,8.90
2023-05-04T10:43:05.328Z,7.00
2023-05-04T10:44:05.295Z,10.30
2023-05-04T10:45:05.402Z,10.40
2023-05-04T10:46:05.320Z,10.20
2023-05-04T10:47:05.308Z,8.00
2023-05-04T10:48:05.348Z,9.80
2023-05-04T10:49:05.252Z,10.00
2023-05-04T10:50:05.227Z,9.60
2023-05-04T10:51:05.214Z,9.40
2023-05-04T10:52:05.247Z,7.70
2023-05-04T10:53:05.290Z,10.80
2023-05-04T10:54:05.211Z,8.10
2023-05-04T10:55:05.387Z,8.60
2023-05-04T10:56:05.218Z,9.70
2023-05-04T10:57:05.194Z,7.80
2023-05-04T10:58:05.171Z,8.00
2023-05-04T10:59:05.170Z,7.10
2023-05-04T11:00:05.166Z,8.30
2023-05-04T11:01:05.252Z,6.40
2023-05-04T11:02:05.187Z,8.30
2023-05-04T11:03:06.272Z,8.30
2023-05-04T11:04:05.118Z,7.20
2023-05-04T11:05:05.312Z,9.50
2023-05-04T11:06:05.138Z,7.40
2023-05-04T11:07:05.122Z,8.20
2023-05-04T11:08:05.107Z,7.90
2023-05-04T11:09:05.088Z,7.70
2023-05-04T11:10:05.238Z,6.30
2023-05-04T11:11:05.092Z,6.70
2023-05-04T11:12:06.061Z,8.60
2023-05-04T11:13:06.871Z,7.70
2023-05-04T11:14:06.062Z,7.60
2023-05-04T11:15:05.307Z,7.30
2023-05-04T11:16:05.070Z,6.80
2023-05-04T11:17:07.343Z,7.90
2023-05-04T11:18:06.052Z,9.20
2023-05-04T11:19:05.023Z,8.70
2023-05-04T11:20:05.036Z,7.30
2023-05-04T11:21:05.000Z,6.80
2023-05-04T11:22:05.016Z,8.50
2023-05-04T11:23:04.986Z,7.10
2023-05-04T11:24:05.007Z,8.10
2023-05-04T11:25:05.087Z,7.60
2023-05-04T11:26:04.962Z,7.70
2023-05-04T11:27:04.976Z,8.00
2023-05-04T11:28:04.960Z,6.40
2023-05-04T11:29:04.989Z,6.40
2023-05-04T11:30:04.959Z,6.60
2023-05-04T11:31:04.949Z,7.20
2023-05-04T11:32:04.914Z,7.50
2023-05-04T11:33:04.978Z,7.10
2023-05-04T11:34:04.928Z,6.50
2023-05-04T11:35:05.200Z,6.10
2023-05-04T11:36:04.890Z,5.60
2023-05-04T11:37:37.730Z,5.70
2023-05-04T11:38:04.865Z,5.80
2023-05-04T11:39:04.898Z,6.30
2023-05-04T11:40:04.858Z,7.30
2023-05-04T11:41:04.844Z,5.60
2023-05-04T11:42:04.832Z,4.90
2023-05-04T11:43:04.856Z,6.70
2023-05-04T11:44:04.848Z,7.30
2023-05-04T11:45:05.039Z,5.70
2023-05-04T11:46:05.837Z,5.40
2023-05-04T11:47:04.839Z,5.10
2023-05-04T11:48:05.849Z,5.50
2023-05-04T11:49:04.811Z,6.20
2023-05-04T11:50:04.800Z,5.10
2023-05-04T11:51:04.791Z,5.30
2023-05-04T11:52:04.760Z,7.80
2023-05-04T11:53:04.896Z,6.70
2023-05-04T11:54:04.782Z,5.80
2023-05-04T11:55:04.890Z,6.50
2023-05-04T11:56:04.737Z,5.70
2023-05-04T11:57:04.728Z,6.00
2023-05-04T11:58:04.767Z,6.00
2023-05-04T11:59:04.722Z,6.40
2023-05-04T12:00:04.708Z,6.30
2023-05-04T12:01:04.876Z,5.80
2023-05-04T12:02:04.715Z,6.50
2023-05-04T12:03:04.766Z,6.00
2023-05-04T12:04:04.787Z,6.00
2023-05-04T12:05:04.763Z,6.10
2023-05-04T12:06:04.758Z,5.90
2023-05-04T12:07:04.678Z,5.50
2023-05-04T12:08:04.677Z,5.70
2023-05-04T12:09:05.389Z,7.00
2023-05-04T12:10:05.257Z,5.90
2023-05-04T12:11:04.625Z,5.70
2023-05-04T12:12:04.643Z,5.40
2023-05-04T12:13:04.651Z,4.60
2023-05-04T12:14:04.667Z,5.50
2023-05-04T12:15:04.661Z,5.40
2023-05-04T12:16:04.614Z,4.50
2023-05-04T12:17:04.607Z,5.90
2023-05-04T12:18:04.592Z,4.50
2023-05-04T12:19:04.562Z,4.60
2023-05-04T12:20:04.563Z,5.50
2023-05-04T12:21:05.188Z,7.30
2023-05-04T12:22:05.570Z,6.20
2023-05-04T12:23:04.540Z,6.00
2023-05-04T12:24:04.547Z,5.20
2023-05-04T12:25:04.699Z,5.30
2023-05-04T12:26:04.549Z,6.30
2023-05-04T12:27:04.512Z,5.50
2023-05-04T12:28:04.510Z,5.50
2023-05-04T12:29:04.489Z,4.70
2023-05-04T12:30:04.489Z,6.50
2023-05-04T12:31:04.508Z,6.10
2023-05-04T12:32:04.501Z,6.20
2023-05-04T12:33:04.469Z,6.90
2023-05-04T12:34:04.468Z,7.60
2023-05-04T12:35:04.716Z,5.60
2023-05-04T12:36:04.962Z,5.60
2023-05-04T12:37:04.440Z,6.30
2023-05-04T12:38:04.425Z,5.40
2023-05-04T12:39:04.411Z,5.50
2023-05-04T12:40:07.249Z,5.00
2023-05-04T12:41:06.400Z,6.10
2023-05-04T12:42:04.394Z,5.10
2023-05-04T12:43:04.377Z,5.40
2023-05-04T12:44:04.422Z,5.70
2023-05-04T12:45:04.472Z,5.40
2023-05-04T12:46:04.381Z,4.60
2023-05-04T12:47:04.376Z,5.50
2023-05-04T12:48:04.407Z,5.70
2023-05-04T12:49:04.376Z,7.20
2023-05-04T12:50:04.359Z,6.10
2023-05-04T12:51:04.992Z,5.10
2023-05-04T12:52:04.313Z,5.30
2023-05-04T12:53:04.309Z,5.30
2023-05-04T12:54:04.320Z,5.30
2023-05-04T12:55:04.464Z,5.00
2023-05-04T12:56:04.286Z,6.20
2023-05-04T12:57:04.284Z,5.50
2023-05-04T12:58:04.291Z,4.40
2023-05-04T12:59:04.288Z,5.20
2023-05-04T13:00:04.252Z,5.70